Terminal Aerodrome Forecast
Issued by NWS

Home | Current Version | Previous Version | Text Only | Print | Product List | Glossary On
Versions: 1 2 3 4 5 6 7 8 9 10 11 12 13 14 15 16 17 18 19 20 21 22 23 24 25 26 27
000
FTUS41 KOKX 102040 AAA
TAFSWF
TAF AMD
KSWF 102040Z 1021/1124 28010KT P6SM SCT035 BKN045
     FM110000 29005KT P6SM SCT035
     FM111100 VRB03KT P6SM BKN120
     FM111600 23006KT 6SM -SN SCT030 OVC050
     FM111900 19006KT 3SM -SN BR OVC030=

USA.gov is the U.S. government's official web portal to all federal, state and local government web resources and services.